createdAt,value
2019-01-03T00:02:27.291Z,103215.73
2019-01-03T00:05:27.600Z,103211.87
2019-01-03T00:08:17.104Z,103214.02
2019-01-03T00:11:12.380Z,103215.70
2019-01-03T00:14:16.975Z,103216.97
2019-01-03T00:17:24.407Z,103214.80
2019-01-03T00:20:12.770Z,103213.03
2019-01-03T00:23:11.205Z,103214.75
2019-01-03T00:26:03.483Z,103210.91
2019-01-03T00:29:05.215Z,103213.94
2019-01-03T00:31:59.987Z,103211.36
2019-01-03T00:34:45.113Z,103207.50
2019-01-03T00:37:40.626Z,103203.15
2019-01-03T00:40:27.852Z,103204.92
2019-01-03T00:43:29.708Z,103203.20
2019-01-03T00:46:19.198Z,103200.63
2019-01-03T00:49:20.834Z,103198.90
2019-01-03T00:52:13.087Z,103196.77
2019-01-03T00:55:07.574Z,103202.37
2019-01-03T00:57:55.935Z,103197.64
2019-01-03T01:00:48.275Z,103204.14
2019-01-03T01:03:36.503Z,103204.54
2019-01-03T01:06:24.735Z,103195.84
2019-01-03T01:09:17.290Z,103199.27
2019-01-03T01:12:10.017Z,103193.66
2019-01-03T01:14:58.119Z,103210.05
2019-01-03T01:17:43.513Z,103213.91
2019-01-03T01:20:39.082Z,103210.44
2019-01-03T01:23:40.375Z,103205.67
2019-01-03T01:26:28.923Z,103206.50
2019-01-03T01:29:27.589Z,103203.44
2019-01-03T01:32:14.143Z,103205.14
2019-01-03T01:35:12.051Z,103212.52
2019-01-03T01:38:01.491Z,103227.14
2019-01-03T01:40:58.104Z,103235.67
2019-01-03T01:43:46.226Z,103237.84
2019-01-03T01:46:35.680Z,103224.49
2019-01-03T01:49:25.165Z,103227.05
2019-01-03T01:52:15.008Z,103225.35
2019-01-03T01:55:07.477Z,103228.83
2019-01-03T01:57:57.005Z,103229.70
2019-01-03T02:00:43.885Z,103227.54
2019-01-03T02:03:32.355Z,103223.69
2019-01-03T02:06:21.742Z,103221.95
2019-01-03T02:09:10.053Z,103225.84
2019-01-03T02:11:58.357Z,103214.22
2019-01-03T02:14:44.429Z,103227.16
2019-01-03T02:17:39.919Z,103211.62
2019-01-03T02:20:26.466Z,103215.05
2019-01-03T02:23:06.262Z,103209.91
2019-01-03T02:25:58.978Z,103206.05
2019-01-03T02:28:51.534Z,103213.39
2019-01-03T02:31:53.021Z,103200.00
2019-01-03T02:34:41.177Z,103206.47
2019-01-03T02:37:29.578Z,103210.28
2019-01-03T02:40:17.858Z,103214.92
2019-01-03T02:43:13.405Z,103216.15
2019-01-03T02:46:04.777Z,103217.38
2019-01-03T02:49:05.244Z,103211.31
2019-01-03T02:51:51.283Z,103213.00
2019-01-03T02:54:40.731Z,103208.64
2019-01-03T02:57:33.084Z,103211.23
2019-01-03T03:00:21.235Z,103205.61
2019-01-03T03:03:06.432Z,103209.05
2019-01-03T03:06:00.430Z,103215.05
2019-01-03T03:08:48.901Z,103206.00
2019-01-03T03:11:38.389Z,103207.30
2019-01-03T03:14:45.937Z,103201.71
2019-01-03T03:17:31.403Z,103202.14
2019-01-03T03:20:22.174Z,103211.17
2019-01-03T03:23:27.112Z,103208.52
2019-01-03T03:26:22.671Z,103203.38
2019-01-03T03:29:11.009Z,103204.66
2019-01-03T03:32:03.297Z,103189.57
2019-01-03T03:35:10.923Z,103188.69
2019-01-03T03:37:59.256Z,103188.20
2019-01-03T03:40:47.445Z,103183.52
2019-01-03T03:43:35.644Z,103189.53
2019-01-03T03:46:31.029Z,103199.86
2019-01-03T03:49:20.439Z,103196.41
2019-01-03T03:52:13.522Z,103204.24
2019-01-03T03:55:05.759Z,103205.17
2019-01-03T03:57:54.206Z,103196.59
2019-01-03T04:00:42.795Z,103200.03
2019-01-03T04:03:40.833Z,103197.84
2019-01-03T04:06:28.939Z,103200.84
2019-01-03T04:09:17.530Z,103202.14
2019-01-03T04:12:22.330Z,103204.31
2019-01-03T04:15:15.460Z,103199.07
2019-01-03T04:19:07.051Z,103203.77
2019-01-03T04:29:21.139Z,103199.73
2019-01-03T04:32:19.975Z,103191.08
2019-01-03T04:35:15.245Z,103190.17
2019-01-03T04:38:04.658Z,103187.61
2019-01-03T04:40:51.169Z,103184.09
2019-01-03T04:43:39.192Z,103185.95
2019-01-03T04:46:24.345Z,103175.69
2019-01-03T04:49:25.917Z,103182.80
2019-01-03T04:52:31.056Z,103182.12
2019-01-03T04:55:19.321Z,103186.40
2019-01-03T04:58:08.824Z,103191.11
2019-01-03T05:01:06.778Z,103183.28
2019-01-03T05:04:02.296Z,103184.02
2019-01-03T05:07:10.308Z,103180.95
2019-01-03T05:09:59.751Z,103182.64
2019-01-03T05:12:48.380Z,103177.77
2019-01-03T05:15:40.503Z,103176.40
2019-01-03T05:18:28.557Z,103171.58
2019-01-03T05:21:17.025Z,103169.45
2019-01-03T05:24:06.928Z,103166.88
2019-01-03T05:26:50.418Z,103161.63
2019-01-03T05:29:28.673Z,103157.81
2019-01-03T05:32:24.082Z,103160.42
2019-01-03T05:35:12.268Z,103156.83
2019-01-03T05:38:00.422Z,103147.72
2019-01-03T05:40:48.780Z,103148.54
2019-01-03T05:43:44.148Z,103167.53
2019-01-03T05:46:39.160Z,103164.89
2019-01-03T05:49:27.396Z,103168.34
2019-01-03T05:52:24.345Z,103163.28
2019-01-03T05:55:12.419Z,103170.11
2019-01-03T05:58:00.810Z,103173.16
2019-01-03T06:00:49.053Z,103169.28
2019-01-03T06:03:38.641Z,103175.28
2019-01-03T06:06:43.610Z,103177.91
2019-01-03T06:09:32.822Z,103184.72
2019-01-03T06:12:22.323Z,103181.63
2019-01-03T06:15:12.100Z,103179.94
2019-01-03T06:18:07.526Z,103173.41
2019-01-03T06:20:56.990Z,103185.07
2019-01-03T06:23:57.557Z,103187.61
2019-01-03T06:26:58.900Z,103179.89
2019-01-03T06:29:56.183Z,103182.54
2019-01-03T06:32:59.151Z,103180.30
2019-01-03T06:35:47.178Z,103185.86
2019-01-03T06:38:35.930Z,103194.48
2019-01-03T06:41:18.025Z,103199.09
2019-01-03T06:44:19.487Z,103199.94
2019-01-03T06:47:18.006Z,103198.67
2019-01-03T06:50:06.296Z,103206.52
2019-01-03T06:52:56.053Z,103210.43
2019-01-03T06:55:43.387Z,103207.95
2019-01-03T06:58:32.281Z,103212.24
2019-01-03T07:01:21.776Z,103213.06
2019-01-03T07:04:09.931Z,103228.52
2019-01-03T07:06:59.384Z,103230.17
2019-01-03T07:09:47.690Z,103232.26
2019-01-03T07:12:43.092Z,103236.98
2019-01-03T07:15:31.875Z,103239.66
2019-01-03T07:18:20.992Z,103234.09
2019-01-03T07:21:09.356Z,103235.45
2019-01-03T07:24:01.797Z,103238.97
2019-01-03T07:26:52.624Z,103238.56
2019-01-03T07:29:44.944Z,103248.45
2019-01-03T07:32:41.046Z,103254.00
2019-01-03T07:35:30.523Z,103259.16
2019-01-03T07:38:18.780Z,103252.73
2019-01-03T07:41:08.335Z,103261.25
2019-01-03T07:44:03.967Z,103251.31
2019-01-03T07:46:48.611Z,103250.05
2019-01-03T07:49:50.291Z,103241.14
2019-01-03T07:52:38.945Z,103244.48
2019-01-03T07:55:27.396Z,103246.34
2019-01-03T07:58:17.373Z,103242.22
2019-01-03T08:01:05.857Z,103240.63
2019-01-03T08:07:05.774Z,103241.62
2019-01-03T08:09:54.017Z,103233.52
2019-01-03T08:12:46.550Z,103233.13
2019-01-03T08:15:54.499Z,103230.14
2019-01-03T08:18:46.905Z,103230.19
2019-01-03T08:21:32.956Z,103233.24
2019-01-03T08:24:17.942Z,103248.35
2019-01-03T08:27:05.849Z,103260.77
2019-01-03T08:30:07.308Z,103264.68
2019-01-03T08:33:07.685Z,103265.53
2019-01-03T08:35:57.175Z,103274.59
2019-01-03T08:38:58.850Z,103284.96
2019-01-03T08:41:47.297Z,103289.26
2019-01-03T08:44:38.794Z,103293.58
2019-01-03T08:47:46.625Z,103296.16
2019-01-03T08:50:42.121Z,103296.63
2019-01-03T08:53:43.339Z,103288.91
2019-01-03T08:56:48.933Z,103285.89
2019-01-03T08:59:36.249Z,103290.25
2019-01-03T09:02:31.754Z,103294.19
2019-01-03T09:05:20.988Z,103290.33
2019-01-03T09:08:13.637Z,103285.19
2019-01-03T09:10:58.461Z,103283.48
2019-01-03T09:14:06.051Z,103288.27
2019-01-03T09:16:54.307Z,103293.12
2019-01-03T09:19:43.737Z,103292.28
2019-01-03T09:22:32.561Z,103282.83
2019-01-03T09:25:20.800Z,103287.16
2019-01-03T09:28:09.244Z,103296.70
2019-01-03T09:30:57.099Z,103297.13
2019-01-03T09:33:45.595Z,103303.22
2019-01-03T09:36:45.667Z,103303.63
2019-01-03T09:39:34.023Z,103304.07
2019-01-03T09:42:23.546Z,103309.68
2019-01-03T09:44:54.103Z,103307.08
2019-01-03T09:47:24.716Z,103297.08
2019-01-03T09:49:55.242Z,103285.40
2019-01-03T09:52:25.959Z,103287.54
2019-01-03T09:54:56.509Z,103291.41
2019-01-03T09:57:27.866Z,103289.22
2019-01-03T09:59:58.537Z,103288.34
2019-01-03T10:02:29.368Z,103289.16
2019-01-03T10:04:59.963Z,103285.22
2019-01-03T10:07:30.826Z,103284.34
2019-01-03T10:10:01.388Z,103273.89
2019-01-03T10:12:31.903Z,103260.41
2019-01-03T10:15:02.471Z,103266.87
2019-01-03T10:17:33.019Z,103265.09
2019-01-03T10:20:08.361Z,103266.39
2019-01-03T10:22:39.692Z,103273.27
2019-01-03T10:25:10.199Z,103270.20
2019-01-03T10:27:41.083Z,103269.31
2019-01-03T10:30:11.686Z,103272.79
2019-01-03T10:32:42.325Z,103275.40
2019-01-03T10:35:13.019Z,103279.23
2019-01-03T10:37:43.723Z,103280.95
2019-01-03T10:40:14.437Z,103281.73
2019-01-03T10:42:45.037Z,103277.81
2019-01-03T10:45:15.941Z,103276.02
2019-01-03T10:47:51.514Z,103273.37
2019-01-03T10:50:22.221Z,103268.96
2019-01-03T10:52:53.334Z,103270.66
2019-01-03T10:55:24.383Z,103269.78
2019-01-03T10:57:55.313Z,103274.92
2019-01-03T11:00:27.174Z,103280.06
2019-01-03T11:02:58.413Z,103268.32
2019-01-03T11:05:31.575Z,103278.27
2019-01-03T11:08:03.362Z,103280.36
2019-01-03T11:10:36.104Z,103277.16
2019-01-03T11:13:07.202Z,103286.20
2019-01-03T11:15:38.091Z,103285.51
2019-01-03T11:18:09.550Z,103281.08
2019-01-03T11:20:41.990Z,103275.16
2019-01-03T11:23:12.720Z,103284.61
2019-01-03T11:25:43.305Z,103285.73
2019-01-03T11:28:16.026Z,103282.03
2019-01-03T11:30:48.202Z,103283.29
2019-01-03T11:33:19.023Z,103281.78
2019-01-03T11:35:49.985Z,103286.30
2019-01-03T11:38:20.501Z,103275.95
2019-01-03T11:40:51.076Z,103271.52
2019-01-03T11:43:21.766Z,103265.00
2019-01-03T11:45:52.270Z,103264.53
2019-01-03T11:48:22.968Z,103269.73
2019-01-03T11:50:54.000Z,103268.84
2019-01-03T11:53:24.608Z,103264.27
2019-01-03T11:55:55.102Z,103257.83
2019-01-03T11:58:25.850Z,103248.96
2019-01-03T12:00:56.527Z,103249.38
2019-01-03T12:03:27.262Z,103255.23
2019-01-03T12:05:57.938Z,103257.95
2019-01-03T12:08:28.515Z,103259.70
2019-01-03T12:10:59.063Z,103259.48
2019-01-03T12:13:29.791Z,103247.25
2019-01-03T12:16:00.494Z,103244.20
2019-01-03T12:18:31.126Z,103250.11
2019-01-03T12:21:01.769Z,103247.95
2019-01-03T12:23:32.297Z,103248.84
2019-01-03T12:26:02.937Z,103246.70
2019-01-03T12:28:33.501Z,103246.77
2019-01-03T12:31:04.121Z,103245.78
2019-01-03T12:33:34.749Z,103252.93
2019-01-03T12:36:05.338Z,103240.77
2019-01-03T12:38:35.908Z,103244.16
2019-01-03T12:41:06.441Z,103236.84
2019-01-03T12:43:36.935Z,103233.70
2019-01-03T12:46:07.419Z,103233.70
2019-01-03T12:48:37.939Z,103240.77
2019-01-03T12:51:08.401Z,103236.67
2019-01-03T12:53:39.751Z,103236.33
2019-01-03T12:56:10.335Z,103239.67
2019-01-03T12:58:40.777Z,103237.39
2019-01-03T13:01:11.282Z,103240.03
2019-01-03T13:03:44.225Z,103237.39
2019-01-03T13:06:20.853Z,103230.42
2019-01-03T13:08:46.888Z,103234.48
2019-01-03T13:11:17.393Z,103230.59
2019-01-03T13:13:47.877Z,103226.94
2019-01-03T13:16:18.370Z,103226.84
2019-01-03T13:18:48.978Z,103225.64
2019-01-03T13:21:19.463Z,103228.66
2019-01-03T13:23:49.928Z,103223.30
2019-01-03T13:26:20.465Z,103223.69
2019-01-03T13:28:50.972Z,103223.89
2019-01-03T13:31:21.374Z,103225.52
2019-01-03T13:33:51.908Z,103222.05
2019-01-03T13:36:22.443Z,103224.00
2019-01-03T13:38:52.895Z,103230.94
2019-01-03T13:41:23.428Z,103232.27
2019-01-03T13:43:53.890Z,103232.50
2019-01-03T13:46:24.387Z,103224.04
2019-01-03T13:48:54.849Z,103227.56
2019-01-03T13:51:25.369Z,103227.11
2019-01-03T13:53:55.823Z,103229.38
2019-01-03T13:56:26.321Z,103224.27
2019-01-03T13:58:56.735Z,103226.72
2019-01-03T14:01:27.264Z,103229.23
2019-01-03T14:03:57.803Z,103227.95
2019-01-03T14:06:28.317Z,103240.75
2019-01-03T14:08:58.836Z,103242.56
2019-01-03T14:11:29.420Z,103253.02
2019-01-03T14:13:59.929Z,103256.05
2019-01-03T14:16:30.408Z,103259.31
2019-01-03T14:19:00.940Z,103258.59
2019-01-03T14:21:31.427Z,103252.92
2019-01-03T14:24:01.910Z,103253.40
2019-01-03T14:26:32.388Z,103254.05
2019-01-03T14:29:02.851Z,103254.05
2019-01-03T14:31:33.381Z,103254.05
2019-01-03T14:34:06.533Z,103252.35
2019-01-03T14:36:36.935Z,103259.81
2019-01-03T14:39:08.746Z,103269.44
2019-01-03T14:41:39.356Z,103262.50
2019-01-03T14:44:09.820Z,103272.95
2019-01-03T14:46:40.221Z,103276.46
2019-01-03T14:49:10.786Z,103274.33
2019-01-03T14:51:41.368Z,103278.66
2019-01-03T14:54:11.826Z,103290.14
2019-01-03T14:56:42.431Z,103291.40
2019-01-03T14:59:12.890Z,103283.31
2019-01-03T15:01:43.419Z,103289.44
2019-01-03T15:04:13.963Z,103293.44
2019-01-03T15:06:44.461Z,103293.45
2019-01-03T15:09:14.970Z,103292.16
2019-01-03T15:11:46.253Z,103294.33
2019-01-03T15:14:16.637Z,103299.22
2019-01-03T15:16:47.130Z,103301.37
2019-01-03T15:19:17.747Z,103301.46
2019-01-03T15:21:48.268Z,103296.23
2019-01-03T15:24:18.790Z,103300.23
2019-01-03T15:26:49.307Z,103303.27
2019-01-03T15:29:19.783Z,103312.94
2019-01-03T15:31:50.284Z,103315.47
2019-01-03T15:34:20.843Z,103312.03
2019-01-03T15:36:51.335Z,103312.05
2019-01-03T15:39:21.786Z,103315.56
2019-01-03T15:41:52.308Z,103316.46
2019-01-03T15:44:22.801Z,103317.82
2019-01-03T15:46:53.303Z,103313.90
2019-01-03T15:49:23.827Z,103313.03
2019-01-03T15:51:54.375Z,103320.89
2019-01-03T15:54:24.844Z,103329.13
2019-01-03T15:56:55.363Z,103327.85
2019-01-03T15:59:25.891Z,103329.62
2019-01-03T16:01:56.316Z,103326.62
2019-01-03T16:04:26.879Z,103329.63
2019-01-03T16:06:57.375Z,103335.31
2019-01-03T16:09:27.970Z,103341.40
2019-01-03T16:11:58.480Z,103341.88
2019-01-03T16:14:28.958Z,103339.76
2019-01-03T16:16:59.546Z,103345.37
2019-01-03T16:19:30.095Z,103346.75
2019-01-03T16:22:00.550Z,103352.42
2019-01-03T16:24:31.036Z,103351.59
2019-01-03T16:27:01.526Z,103351.13
2019-01-03T16:29:32.014Z,103359.36
2019-01-03T16:32:02.461Z,103357.68
2019-01-03T16:34:33.074Z,103349.88
2019-01-03T16:37:03.567Z,103351.65
2019-01-03T16:39:34.061Z,103355.09
2019-01-03T16:42:04.612Z,103349.94
2019-01-03T16:44:35.098Z,103349.47
2019-01-03T16:47:05.686Z,103346.91
2019-01-03T16:49:36.214Z,103343.05
2019-01-03T16:52:06.788Z,103332.66
2019-01-03T16:54:37.338Z,103335.72
2019-01-03T16:57:07.849Z,103329.22
2019-01-03T16:59:38.303Z,103336.14
2019-01-03T17:02:08.807Z,103340.09
2019-01-03T17:04:39.333Z,103337.90
2019-01-03T17:07:09.791Z,103334.05
2019-01-03T17:09:40.251Z,103324.09
2019-01-03T17:12:10.765Z,103334.92
2019-01-03T17:14:41.219Z,103344.07
2019-01-03T17:17:11.684Z,103341.05
2019-01-03T17:19:42.235Z,103345.83
2019-01-03T17:22:12.715Z,103348.02
2019-01-03T17:24:43.169Z,103354.09
2019-01-03T17:27:13.719Z,103352.82
2019-01-03T17:29:44.191Z,103345.87
2019-01-03T17:32:14.666Z,103347.16
2019-01-03T17:34:45.207Z,103344.59
2019-01-03T17:37:15.681Z,103344.17
2019-01-03T17:39:46.149Z,103344.14
2019-01-03T17:42:16.688Z,103334.20
2019-01-03T17:44:47.175Z,103338.97
2019-01-03T17:47:17.687Z,103338.97
2019-01-03T17:49:48.136Z,103332.89
2019-01-03T17:52:18.631Z,103336.38
2019-01-03T17:54:49.134Z,103335.98
2019-01-03T17:57:19.680Z,103345.92
2019-01-03T17:59:50.813Z,103349.40
2019-01-03T18:02:21.351Z,103340.72
2019-01-03T18:04:51.924Z,103343.35
2019-01-03T18:07:22.447Z,103332.95
2019-01-03T18:09:52.953Z,103345.52
2019-01-03T18:12:24.060Z,103339.47
2019-01-03T18:14:58.677Z,103349.87
2019-01-03T18:17:29.205Z,103339.05
2019-01-03T18:19:59.682Z,103326.08
2019-01-03T18:22:30.208Z,103329.98
2019-01-03T18:25:00.744Z,103332.15
2019-01-03T18:27:31.278Z,103344.69
2019-01-03T18:30:01.668Z,103344.27
2019-01-03T18:32:32.172Z,103350.34
2019-01-03T18:35:02.633Z,103355.54
2019-01-03T18:37:33.097Z,103360.73
2019-01-03T18:42:39.641Z,103376.34
2019-01-03T18:45:18.130Z,103378.94
2019-01-03T18:47:50.957Z,103390.19
2019-01-03T18:50:24.106Z,103390.16
2019-01-03T18:52:55.216Z,103387.16
2019-01-03T18:55:25.843Z,103384.98
2019-01-03T18:57:56.526Z,103385.85
2019-01-03T19:00:27.215Z,103384.13
2019-01-03T19:02:57.896Z,103381.53
2019-01-03T19:05:28.618Z,103377.17
2019-01-03T19:07:59.270Z,103371.14
2019-01-03T19:10:29.928Z,103367.25
2019-01-03T19:13:00.704Z,103364.21
2019-01-03T19:15:31.471Z,103369.42
2019-01-03T19:18:02.150Z,103367.68
2019-01-03T19:20:32.848Z,103370.70
2019-01-03T19:23:04.106Z,103375.89
2019-01-03T19:25:35.266Z,103370.70
2019-01-03T19:28:06.010Z,103369.40
2019-01-03T19:30:36.657Z,103366.38
2019-01-03T19:33:07.329Z,103366.80
2019-01-03T19:35:37.937Z,103365.08
2019-01-03T19:38:08.765Z,103372.02
2019-01-03T19:40:39.487Z,103363.34
2019-01-03T19:43:10.190Z,103372.02
2019-01-03T19:45:41.126Z,103369.86
2019-01-03T19:48:11.905Z,103369.40
2019-01-03T19:50:42.524Z,103367.69
2019-01-03T19:53:13.448Z,103366.83
2019-01-03T19:55:44.181Z,103375.48
2019-01-03T19:58:14.770Z,103373.76
2019-01-03T20:00:45.465Z,103378.06
2019-01-03T20:03:16.167Z,103375.47
2019-01-03T20:05:46.775Z,103367.70
2019-01-03T20:08:17.432Z,103372.87
2019-01-03T20:10:48.184Z,103371.56
2019-01-03T20:13:18.839Z,103367.69
2019-01-03T20:15:49.647Z,103371.58
2019-01-03T20:18:20.416Z,103362.94
2019-01-03T20:20:53.051Z,103366.38
2019-01-03T20:23:23.854Z,103365.09
2019-01-03T20:25:54.500Z,103365.08
2019-01-03T20:28:25.133Z,103368.53
2019-01-03T20:30:55.912Z,103371.59
2019-01-03T20:33:29.576Z,103372.88
2019-01-03T20:36:00.311Z,103369.41
2019-01-03T20:38:30.853Z,103365.08
2019-01-03T20:41:01.865Z,103365.51
2019-01-03T20:43:32.587Z,103360.77
2019-01-03T20:46:03.397Z,103356.44
2019-01-03T20:48:34.594Z,103355.57
2019-01-03T20:51:05.704Z,103356.44
2019-01-03T20:53:36.297Z,103355.56
2019-01-03T20:56:07.941Z,103364.23
2019-01-03T20:58:38.501Z,103357.28
2019-01-03T21:01:09.039Z,103352.09
2019-01-03T21:03:39.620Z,103343.88
2019-01-03T21:06:10.254Z,103350.38
2019-01-03T21:08:40.811Z,103346.91
2019-01-03T21:11:11.344Z,103343.88
2019-01-03T21:13:42.241Z,103338.67
2019-01-03T21:16:13.178Z,103331.75
2019-01-03T21:18:46.133Z,103336.09
2019-01-03T21:21:16.552Z,103336.52
2019-01-03T21:23:47.153Z,103336.53
2019-01-03T21:26:17.875Z,103330.47
2019-01-03T21:28:48.495Z,103331.75
2019-01-03T21:31:19.258Z,103327.87
2019-01-03T21:33:50.785Z,103323.55
2019-01-03T21:36:21.823Z,103319.66
2019-01-03T21:38:52.999Z,103314.91
2019-01-03T21:41:23.661Z,103305.38
2019-01-03T21:43:54.584Z,103298.88
2019-01-03T21:46:28.111Z,103303.63
2019-01-03T21:48:58.832Z,103297.58
2019-01-03T21:51:29.486Z,103300.16
2019-01-03T21:54:00.179Z,103292.39
2019-01-03T21:56:31.797Z,103287.20
2019-01-03T21:59:02.397Z,103290.64
2019-01-03T22:01:33.047Z,103283.73
2019-01-03T22:04:06.325Z,103291.08
2019-01-03T22:06:37.869Z,103285.45
2019-01-03T22:09:10.037Z,103287.62
2019-01-03T22:11:43.590Z,103280.67
2019-01-03T22:14:14.521Z,103281.11
2019-01-03T22:16:46.691Z,103284.15
2019-01-03T22:19:20.517Z,103275.05
2019-01-03T22:21:52.959Z,103267.28
2019-01-03T22:24:46.770Z,103269.02
2019-01-03T22:27:18.597Z,103272.48
2019-01-03T22:29:49.536Z,103274.20
2019-01-03T22:32:21.963Z,103260.34
2019-01-03T22:34:56.811Z,103264.25
2019-01-03T22:37:28.506Z,103267.72
2019-01-03T22:40:02.555Z,103280.70
2019-01-03T22:42:33.908Z,103284.14
2019-01-03T22:45:04.996Z,103277.23
2019-01-03T22:47:36.605Z,103281.09
2019-01-03T22:50:08.805Z,103278.94
2019-01-03T22:52:39.349Z,103273.73
2019-01-03T22:55:10.034Z,103275.91
2019-01-03T22:57:40.609Z,103277.65
2019-01-03T23:00:42.721Z,103267.23
2019-01-03T23:03:13.402Z,103269.83
2019-01-03T23:05:43.958Z,103265.91
2019-01-03T23:08:14.532Z,103265.88
2019-01-03T23:10:45.054Z,103265.46
2019-01-03T23:13:15.572Z,103261.56
2019-01-03T23:15:46.181Z,103257.25
2019-01-03T23:18:16.742Z,103248.58
2019-01-03T23:20:47.354Z,103239.45
2019-01-03T23:23:17.916Z,103236.42
2019-01-03T23:25:48.597Z,103236.85
2019-01-03T23:28:19.172Z,103233.41
2019-01-03T23:30:49.770Z,103216.91
2019-01-03T23:33:20.345Z,103209.98
2019-01-03T23:35:50.966Z,103203.95
2019-01-03T23:38:21.609Z,103210.83
2019-01-03T23:40:52.189Z,103215.14
2019-01-03T23:43:25.628Z,103215.14
2019-01-03T23:45:56.160Z,103207.34
2019-01-03T23:48:28.176Z,103198.63
2019-01-03T23:50:59.100Z,103192.13
2019-01-03T23:53:29.629Z,103183.45
2019-01-03T23:56:01.133Z,103191.70
2019-01-03T23:58:31.748Z,103196.02
